Time;durP1;ratioP1;P1;durP2;ratioP2;P2;SDS_P1;SDS_P2;PMS_P1;PMS_P2;Temp;Humidity;BMP_temperature;BMP_pressure;BME280_temperature;BME280_humidity;BME280_pressure;Samples;Min_cycle;Max_cycle;Signal;HPM_P1;HPM_P2
2022/02/23 00:00:37;;;;;;;0.80;0.80;;;9.20;99.90;;;;;;5115315;28;20307;-67
2022/02/23 00:03:04;;;;;;;0.80;0.60;;;9.20;99.90;;;;;;5115276;28;20292;-66
2022/02/23 00:05:31;;;;;;;0.60;0.60;;;9.20;99.90;;;;;;5115304;28;20633;-66
2022/02/23 00:07:58;;;;;;;1.15;0.80;;;9.20;99.90;;;;;;5114972;28;20714;-66
2022/02/23 00:10:25;;;;;;;0.95;0.90;;;9.20;99.90;;;;;;5115242;28;20293;-67
2022/02/23 00:12:53;;;;;;;0.90;0.70;;;9.20;99.90;;;;;;5115074;28;20201;-66
2022/02/23 00:15:20;;;;;;;0.60;0.60;;;9.30;99.90;;;;;;5115091;28;20297;-66
2022/02/23 00:17:47;;;;;;;0.95;0.70;;;9.30;99.90;;;;;;5114855;28;20236;-66
2022/02/23 00:20:14;;;;;;;1.80;1.00;;;9.30;99.90;;;;;;5114682;28;20293;-66
2022/02/23 00:22:42;;;;;;;1.15;0.75;;;9.30;99.90;;;;;;5115102;28;20296;-66
2022/02/23 00:25:09;;;;;;;1.10;1.00;;;9.30;99.90;;;;;;5114796;28;20209;-66
2022/02/23 00:27:37;;;;;;;1.48;0.82;;;9.30;99.90;;;;;;5115232;28;20569;-66
2022/02/23 00:30:06;;;;;;;2.78;0.70;;;9.30;99.90;;;;;;5114475;28;20221;-67
2022/02/23 00:32:33;;;;;;;2.67;0.85;;;9.30;99.90;;;;;;5114791;28;20578;-67
2022/02/23 00:35:00;;;;;;;1.35;0.85;;;9.30;99.90;;;;;;5114701;28;20292;-66
2022/02/23 00:37:27;;;;;;;2.03;0.65;;;9.30;99.90;;;;;;5114888;28;20229;-67
2022/02/23 00:39:54;;;;;;;1.48;0.90;;;9.40;99.90;;;;;;5114344;28;20300;-66
2022/02/23 00:42:21;;;;;;;1.35;0.80;;;9.40;99.90;;;;;;5114523;28;20655;-66
2022/02/23 00:44:48;;;;;;;2.45;1.00;;;9.40;99.90;;;;;;5114421;28;20204;-67
2022/02/23 00:47:16;;;;;;;0.65;0.65;;;9.30;99.90;;;;;;5114497;28;20228;-67
2022/02/23 00:49:43;;;;;;;0.80;0.70;;;9.30;99.90;;;;;;5114102;28;20213;-67
2022/02/23 00:52:10;;;;;;;0.80;0.65;;;9.30;99.90;;;;;;5114508;28;20251;-67
2022/02/23 00:54:37;;;;;;;1.50;0.80;;;9.30;99.90;;;;;;5114405;28;20705;-67
2022/02/23 00:57:04;;;;;;;1.55;0.75;;;9.30;99.90;;;;;;5114305;28;20328;-67
2022/02/23 00:59:31;;;;;;;1.27;1.00;;;9.20;99.90;;;;;;5114168;28;20201;-68
2022/02/23 01:01:58;;;;;;;0.60;0.60;;;9.20;99.90;;;;;;5113941;28;20240;-66
2022/02/23 01:04:26;;;;;;;2.03;0.98;;;9.20;99.90;;;;;;5114006;28;20216;-67
2022/02/23 01:06:53;;;;;;;0.65;0.50;;;9.20;99.90;;;;;;5114116;28;20250;-67
2022/02/23 01:09:20;;;;;;;1.10;0.73;;;9.30;99.90;;;;;;5114002;28;20198;-66
2022/02/23 01:11:47;;;;;;;0.70;0.70;;;9.30;99.90;;;;;;5113986;28;20208;-67
2022/02/23 01:14:14;;;;;;;1.30;0.82;;;9.30;99.90;;;;;;5113829;28;20215;-67
2022/02/23 01:16:41;;;;;;;0.60;0.60;;;9.30;99.90;;;;;;5114164;28;20308;-67
2022/02/23 01:19:08;;;;;;;2.38;1.08;;;9.30;99.90;;;;;;5114217;28;20201;-66
2022/02/23 01:21:36;;;;;;;1.10;1.00;;;9.30;99.90;;;;;;5113836;28;20292;-67
2022/02/23 01:24:04;;;;;;;3.13;1.40;;;9.40;99.90;;;;;;5113767;28;20295;-67
2022/02/23 01:26:31;;;;;;;1.20;1.10;;;9.30;99.90;;;;;;5113387;28;20732;-67
2022/02/23 01:28:58;;;;;;;0.95;0.90;;;9.30;99.90;;;;;;5113484;28;20686;-67
2022/02/23 01:31:25;;;;;;;1.52;0.95;;;9.30;99.90;;;;;;5114034;28;20693;-67
2022/02/23 01:33:52;;;;;;;1.25;1.02;;;9.20;99.90;;;;;;5113597;28;20292;-66
2022/02/23 01:36:19;;;;;;;1.20;1.10;;;9.30;99.90;;;;;;5112870;28;20229;-67
2022/02/23 01:38:47;;;;;;;1.25;1.15;;;9.20;99.90;;;;;;5113398;28;20225;-66
2022/02/23 01:41:17;;;;;;;1.38;1.13;;;9.20;99.90;;;;;;5113096;28;20206;-66
2022/02/23 01:43:44;;;;;;;1.30;0.93;;;9.20;99.90;;;;;;5113239;28;20296;-66
2022/02/23 01:46:11;;;;;;;1.95;1.25;;;9.20;99.90;;;;;;5113569;28;20205;-66
2022/02/23 01:48:38;;;;;;;2.20;1.40;;;9.20;99.90;;;;;;5113194;28;20197;-66
2022/02/23 01:51:05;;;;;;;1.60;0.90;;;9.10;99.90;;;;;;5113079;28;20284;-68
2022/02/23 01:53:32;;;;;;;1.75;1.00;;;8.60;99.90;;;;;;5113063;28;20193;-68
2022/02/23 01:56:00;;;;;;;2.05;1.50;;;8.00;99.90;;;;;;5123646;27;20277;-68
2022/02/23 01:58:27;;;;;;;3.88;1.10;;;7.80;99.90;;;;;;5134998;27;20220;-68
2022/02/23 02:00:54;;;;;;;3.65;1.00;;;7.30;99.90;;;;;;5134946;27;20639;-68
2022/02/23 02:03:21;;;;;;;3.00;1.10;;;6.90;99.90;;;;;;5134968;27;20291;-68
2022/02/23 02:05:47;;;;;;;2.95;1.08;;;6.80;99.90;;;;;;5134959;27;20250;-68
2022/02/23 02:08:14;;;;;;;6.88;1.20;;;6.70;99.90;;;;;;5134579;27;20221;-68
2022/02/23 02:10:41;;;;;;;5.68;1.20;;;6.80;99.90;;;;;;5134545;27;20200;-68
2022/02/23 02:13:09;;;;;;;1.67;1.02;;;6.90;99.90;;;;;;5134846;27;20287;-68
2022/02/23 02:15:36;;;;;;;0.98;0.88;;;6.80;99.90;;;;;;5134866;27;20200;-68
2022/02/23 02:18:03;;;;;;;5.95;1.20;;;6.80;99.90;;;;;;5134718;27;20271;-68
2022/02/23 02:20:30;;;;;;;3.70;1.30;;;6.80;99.90;;;;;;5134485;27;20283;-68
2022/02/23 02:22:58;;;;;;;2.53;0.88;;;6.70;99.90;;;;;;5134694;27;20196;-68
2022/02/23 02:25:25;;;;;;;2.97;1.05;;;6.60;99.90;;;;;;5134601;27;20201;-68
2022/02/23 02:27:52;;;;;;;3.55;0.90;;;6.80;99.90;;;;;;5134544;27;20231;-68
2022/02/23 02:30:19;;;;;;;3.30;1.20;;;6.90;99.90;;;;;;5134429;27;20310;-68
2022/02/23 02:32:45;;;;;;;3.13;1.00;;;7.00;99.90;;;;;;5134486;27;20242;-68
2022/02/23 02:35:15;;;;;;;4.53;1.27;;;7.00;99.90;;;;;;5134465;28;20733;-68
2022/02/23 02:37:42;;;;;;;2.03;1.00;;;7.00;99.90;;;;;;5134473;28;20232;-68
2022/02/23 02:40:12;;;;;;;3.97;1.25;;;7.00;99.90;;;;;;5134532;28;20295;-68
2022/02/23 02:42:39;;;;;;;3.38;1.10;;;7.10;99.90;;;;;;5134629;28;20283;-68
2022/02/23 02:45:07;;;;;;;1.30;0.90;;;7.10;99.90;;;;;;5134463;28;20296;-68
2022/02/23 02:47:33;;;;;;;3.63;1.10;;;7.20;99.90;;;;;;5137199;27;20217;-68
2022/02/23 02:50:00;;;;;;;2.10;0.95;;;7.20;99.90;;;;;;5138459;27;20291;-67
2022/02/23 02:52:27;;;;;;;2.65;0.90;;;7.30;99.90;;;;;;5138587;27;20197;-68
2022/02/23 02:54:54;;;;;;;3.60;1.08;;;7.30;99.90;;;;;;5138773;27;20201;-68
2022/02/23 02:57:22;;;;;;;3.88;1.10;;;7.30;99.90;;;;;;5138662;27;20570;-68
2022/02/23 02:59:49;;;;;;;3.85;1.55;;;7.30;99.90;;;;;;5138448;27;20291;-68
2022/02/23 03:02:16;;;;;;;1.63;0.90;;;7.30;99.90;;;;;;5138571;27;20562;-68
2022/02/23 03:04:43;;;;;;;2.58;1.10;;;7.30;99.90;;;;;;5138733;27;20207;-68
2022/02/23 03:07:10;;;;;;;3.10;1.20;;;7.30;99.90;;;;;;5138241;27;20311;-68
2022/02/23 03:09:37;;;;;;;2.13;1.00;;;7.30;99.90;;;;;;5138318;27;20231;-68
2022/02/23 03:12:04;;;;;;;2.05;1.02;;;7.40;99.90;;;;;;5138115;27;20659;-68
2022/02/23 03:14:32;;;;;;;4.78;1.58;;;7.20;99.90;;;;;;5138234;27;20283;-68
2022/02/23 03:16:59;;;;;;;1.50;1.30;;;7.20;99.90;;;;;;5137951;27;20227;-68
2022/02/23 03:19:26;;;;;;;8.68;1.65;;;7.30;99.90;;;;;;5138101;27;20272;-68
2022/02/23 03:21:53;;;;;;;5.35;1.80;;;7.30;99.90;;;;;;5137934;27;20224;-68
2022/02/23 03:24:20;;;;;;;4.50;1.40;;;7.40;99.90;;;;;;5138040;27;20200;-68
2022/02/23 03:26:47;;;;;;;5.82;1.65;;;7.40;99.90;;;;;;5137742;27;20235;-68
2022/02/23 03:29:14;;;;;;;2.67;1.25;;;7.40;99.90;;;;;;5138099;27;20192;-68
2022/02/23 03:31:42;;;;;;;4.10;1.55;;;7.40;99.90;;;;;;5137990;27;20205;-68
2022/02/23 03:34:09;;;;;;;3.10;1.27;;;7.40;99.90;;;;;;5137883;27;20566;-68
2022/02/23 03:36:36;;;;;;;3.17;1.60;;;7.40;99.90;;;;;;5137875;27;20217;-68
2022/02/23 03:39:04;;;;;;;3.10;1.60;;;7.50;99.90;;;;;;5137711;27;20252;-68
2022/02/23 03:41:30;;;;;;;3.55;1.58;;;7.50;99.90;;;;;;5137440;27;20215;-68
2022/02/23 03:43:57;;;;;;;3.63;1.58;;;7.50;99.90;;;;;;5137654;27;20197;-68
2022/02/23 03:46:24;;;;;;;5.25;1.67;;;7.50;99.90;;;;;;5137425;27;20706;-68
2022/02/23 03:48:52;;;;;;;4.25;2.00;;;7.40;99.90;;;;;;5137591;27;20640;-68
2022/02/23 03:51:19;;;;;;;5.13;1.90;;;7.40;99.90;;;;;;5137423;27;20249;-68
2022/02/23 03:53:46;;;;;;;4.80;1.77;;;7.40;99.90;;;;;;5137268;27;20254;-68
2022/02/23 03:58:53;;;;;;;3.70;1.60;;;7.20;99.90;;;;;;5136043;27;20221;-68
2022/02/23 04:01:20;;;;;;;4.72;2.08;;;7.20;99.90;;;;;;5136924;27;20200;-68
2022/02/23 04:03:47;;;;;;;5.20;2.65;;;7.20;99.90;;;;;;5137306;27;20602;-68
2022/02/23 04:06:15;;;;;;;7.72;2.25;;;7.20;99.90;;;;;;5137189;27;20311;-68
2022/02/23 04:08:42;;;;;;;4.90;3.60;;;7.20;99.90;;;;;;5136958;27;20662;-68
2022/02/23 04:11:09;;;;;;;4.03;2.20;;;7.10;99.90;;;;;;5136789;27;20681;-68
2022/02/23 04:13:35;;;;;;;2.75;1.67;;;7.10;99.90;;;;;;5137060;27;20223;-68
2022/02/23 04:16:02;;;;;;;4.60;2.10;;;7.00;99.90;;;;;;5137250;27;20201;-68
2022/02/23 04:18:29;;;;;;;3.17;1.85;;;6.90;99.90;;;;;;5136668;27;20222;-68
2022/02/23 04:20:56;;;;;;;2.60;1.70;;;6.80;99.90;;;;;;5136656;27;20201;-68
2022/02/23 04:23:24;;;;;;;5.15;2.00;;;6.80;99.90;;;;;;5136958;27;20228;-68
2022/02/23 04:25:51;;;;;;;2.55;2.00;;;6.70;99.90;;;;;;5137022;27;20197;-68
2022/02/23 04:28:18;;;;;;;3.80;2.40;;;6.80;99.90;;;;;;5136626;27;20230;-67
2022/02/23 04:30:44;;;;;;;2.33;1.98;;;6.80;99.90;;;;;;5136637;27;20612;-68
2022/02/23 04:33:11;;;;;;;4.20;2.38;;;6.90;99.90;;;;;;5136692;27;20291;-68
2022/02/23 04:35:38;;;;;;;4.18;2.08;;;7.00;99.90;;;;;;5136673;27;20287;-68
2022/02/23 04:38:05;;;;;;;9.15;4.30;;;7.00;99.90;;;;;;5136531;27;20228;-68
2022/02/23 04:40:33;;;;;;;5.82;2.60;;;7.10;99.90;;;;;;5136315;27;20204;-68
2022/02/23 04:43:00;;;;;;;4.53;3.00;;;7.10;99.90;;;;;;5136542;27;20197;-68
2022/02/23 04:45:27;;;;;;;4.05;2.20;;;7.10;99.90;;;;;;5136265;27;20205;-68
2022/02/23 04:47:54;;;;;;;6.80;2.80;;;7.20;99.90;;;;;;5136509;27;20221;-68
2022/02/23 04:50:20;;;;;;;3.17;2.10;;;7.10;99.90;;;;;;5136178;27;20655;-68
2022/02/23 04:52:47;;;;;;;4.25;2.40;;;7.20;99.90;;;;;;5136639;27;20211;-67
2022/02/23 04:55:14;;;;;;;4.18;1.90;;;7.20;99.90;;;;;;5136187;27;20775;-68
2022/02/23 04:57:42;;;;;;;5.40;2.40;;;7.10;99.90;;;;;;5135886;27;20312;-68
2022/02/23 05:00:10;;;;;;;4.03;2.20;;;7.00;99.90;;;;;;5136293;27;20311;-68
2022/02/23 05:02:37;;;;;;;10.82;6.55;;;7.00;99.90;;;;;;5136126;27;20203;-68
2022/02/23 05:05:04;;;;;;;8.98;5.25;;;7.00;99.90;;;;;;5135978;27;20733;-68
2022/02/23 05:07:31;;;;;;;3.78;2.08;;;7.00;99.90;;;;;;5135831;27;20220;-68
2022/02/23 05:09:58;;;;;;;3.67;2.00;;;7.00;99.90;;;;;;5134570;27;20239;-68
2022/02/23 05:12:25;;;;;;;3.70;1.80;;;7.00;99.90;;;;;;5135842;27;20205;-67
2022/02/23 05:14:53;;;;;;;3.05;1.70;;;7.00;99.90;;;;;;5135926;27;20201;-67
2022/02/23 05:17:20;;;;;;;4.20;2.08;;;7.00;99.90;;;;;;5136065;27;20220;-68
2022/02/23 05:19:47;;;;;;;4.35;2.00;;;6.90;99.90;;;;;;5135718;27;20221;-67
2022/02/23 05:22:14;;;;;;;4.03;1.60;;;6.90;99.90;;;;;;5135663;27;20215;-68
2022/02/23 05:24:41;;;;;;;4.30;2.40;;;6.90;99.90;;;;;;5135738;27;20300;-68
2022/02/23 05:27:08;;;;;;;4.05;1.80;;;6.90;99.90;;;;;;5135442;27;20579;-68
2022/02/23 05:29:35;;;;;;;4.43;1.70;;;6.90;99.90;;;;;;5135497;27;20203;-67
2022/02/23 05:32:03;;;;;;;4.13;2.85;;;6.80;99.90;;;;;;5135459;27;20285;-68
2022/02/23 05:34:30;;;;;;;3.13;1.90;;;6.60;99.90;;;;;;5135540;27;20207;-67
2022/02/23 05:36:57;;;;;;;5.15;2.00;;;6.60;99.90;;;;;;5135371;27;20301;-67
2022/02/23 05:39:24;;;;;;;3.97;2.08;;;6.60;99.90;;;;;;5135606;27;20271;-68
2022/02/23 05:41:51;;;;;;;12.73;2.10;;;6.60;99.90;;;;;;5135003;27;20211;-67
2022/02/23 05:44:18;;;;;;;5.10;2.50;;;6.50;99.90;;;;;;5135324;27;20206;-68
2022/02/23 05:46:44;;;;;;;9.07;2.80;;;6.40;99.90;;;;;;5135139;27;20224;-68
2022/02/23 05:49:13;;;;;;;4.65;2.63;;;6.40;99.90;;;;;;5135284;27;20197;-68
2022/02/23 05:51:41;;;;;;;8.30;2.65;;;6.30;99.90;;;;;;5134772;27;20203;-67
2022/02/23 05:54:08;;;;;;;3.53;2.28;;;6.40;99.90;;;;;;5135178;27;20620;-67
2022/02/23 05:56:36;;;;;;;5.63;2.30;;;6.40;99.90;;;;;;5135047;27;20732;-68
2022/02/23 05:59:03;;;;;;;9.70;2.20;;;6.40;99.90;;;;;;5135197;27;20216;-68
2022/02/23 06:01:30;;;;;;;6.75;2.92;;;6.40;99.90;;;;;;5134999;27;20200;-68
2022/02/23 06:03:57;;;;;;;3.70;2.22;;;6.40;99.90;;;;;;5134983;27;20201;-68
2022/02/23 06:06:26;;;;;;;7.35;2.60;;;6.50;99.90;;;;;;5135046;27;20230;-68
2022/02/23 06:08:53;;;;;;;5.38;2.72;;;6.40;99.90;;;;;;5134951;27;20291;-67
2022/02/23 06:11:20;;;;;;;4.65;2.70;;;6.40;99.90;;;;;;5134711;27;20288;-67
2022/02/23 06:13:50;;;;;;;10.02;3.10;;;6.10;99.90;;;;;;5134870;27;20291;-68
2022/02/23 06:16:18;;;;;;;6.47;3.33;;;6.00;99.90;;;;;;5134674;27;20311;-68
2022/02/23 06:18:45;;;;;;;6.55;2.90;;;5.90;99.90;;;;;;5134403;27;20228;-68
2022/02/23 06:21:11;;;;;;;6.50;2.67;;;5.90;99.90;;;;;;5134222;27;20561;-68
2022/02/23 06:23:39;;;;;;;5.68;3.45;;;5.90;99.90;;;;;;5134691;27;20200;-68
2022/02/23 06:26:06;;;;;;;6.38;2.90;;;6.00;99.90;;;;;;5134611;27;20203;-68
2022/02/23 06:28:33;;;;;;;8.25;3.67;;;6.00;99.90;;;;;;5134447;27;20585;-68
2022/02/23 06:31:00;;;;;;;4.80;2.85;;;6.10;99.90;;;;;;5134303;27;20552;-68
2022/02/23 06:33:28;;;;;;;6.10;3.28;;;6.10;99.90;;;;;;5134320;27;20650;-68
2022/02/23 06:35:55;;;;;;;7.15;3.75;;;6.10;99.90;;;;;;5134291;27;20261;-68
2022/02/23 06:38:22;;;;;;;7.88;3.28;;;6.10;99.90;;;;;;5134545;28;20232;-68
2022/02/23 06:40:51;;;;;;;6.20;2.63;;;6.00;99.90;;;;;;5134239;28;20197;-67
2022/02/23 06:43:20;;;;;;;6.55;2.85;;;6.00;99.90;;;;;;5134506;28;20307;-68
2022/02/23 06:45:48;;;;;;;5.80;2.80;;;6.10;99.90;;;;;;5134239;28;20224;-68
2022/02/23 06:48:17;;;;;;;8.27;2.75;;;6.10;99.90;;;;;;5134553;28;20252;-68
2022/02/23 06:50:44;;;;;;;5.47;2.35;;;6.00;99.90;;;;;;5134284;28;20201;-68
2022/02/23 06:53:12;;;;;;;6.80;2.22;;;6.00;99.90;;;;;;5134382;28;20730;-68
2022/02/23 06:55:40;;;;;;;5.95;2.55;;;6.10;99.90;;;;;;5134445;28;20243;-68
2022/02/23 06:58:09;;;;;;;6.03;2.70;;;5.90;99.90;;;;;;5134308;28;20227;-68
2022/02/23 07:00:36;;;;;;;9.68;2.95;;;5.70;99.90;;;;;;5134220;28;20252;-68
2022/02/23 07:03:03;;;;;;;5.25;2.97;;;5.60;99.90;;;;;;5134084;28;20677;-68
2022/02/23 07:05:31;;;;;;;9.25;3.30;;;5.50;99.90;;;;;;5134289;28;20213;-67
2022/02/23 07:08:02;;;;;;;5.82;3.80;;;5.70;99.90;;;;;;5134287;28;20647;-68
2022/02/23 07:10:30;;;;;;;5.13;3.35;;;5.80;99.90;;;;;;5134107;27;20205;-68
2022/02/23 07:12:58;;;;;;;8.27;4.10;;;5.90;99.90;;;;;;5134201;28;20204;-68
2022/02/23 07:15:27;;;;;;;7.90;3.53;;;6.10;99.90;;;;;;5134217;28;20219;-68
2022/02/23 07:17:54;;;;;;;5.85;3.67;;;6.10;99.90;;;;;;5134299;27;20220;-68
2022/02/23 07:20:21;;;;;;;5.13;3.50;;;6.20;99.90;;;;;;5133888;28;20221;-68
2022/02/23 07:22:49;;;;;;;6.32;4.22;;;6.30;99.90;;;;;;5134191;28;20205;-68
2022/02/23 07:25:16;;;;;;;10.35;4.05;;;6.30;99.90;;;;;;5134023;28;20200;-68
2022/02/23 07:27:43;;;;;;;7.50;4.18;;;6.30;99.90;;;;;;5133762;28;20229;-68
2022/02/23 07:30:12;;;;;;;7.68;3.50;;;6.30;99.90;;;;;;5133916;28;20197;-68
2022/02/23 07:32:41;;;;;;;5.63;3.42;;;6.30;99.90;;;;;;5134080;27;20197;-68
2022/02/23 07:35:10;;;;;;;6.05;3.95;;;6.30;99.90;;;;;;5137076;27;20203;-67
2022/02/23 07:37:38;;;;;;;7.03;3.45;;;6.30;99.90;;;;;;5137770;27;20277;-68
2022/02/23 07:40:08;;;;;;;5.85;4.13;;;6.40;99.90;;;;;;5137501;27;20232;-68
2022/02/23 07:42:35;;;;;;;7.82;3.35;;;6.40;99.90;;;;;;5137764;27;20236;-68
2022/02/23 07:45:02;;;;;;;6.07;3.97;;;6.40;99.90;;;;;;5137508;27;20200;-68
2022/02/23 07:47:29;;;;;;;6.50;3.50;;;6.20;99.90;;;;;;5137321;27;20224;-68
2022/02/23 07:49:57;;;;;;;10.48;5.70;;;5.90;99.90;;;;;;5137314;27;20204;-68
2022/02/23 07:52:25;;;;;;;10.20;6.53;;;5.70;99.90;;;;;;5137733;27;20207;-68
2022/02/23 07:54:52;;;;;;;15.20;5.78;;;5.60;99.90;;;;;;5137511;27;20204;-68
2022/02/23 07:57:19;;;;;;;10.88;5.80;;;5.60;99.90;;;;;;5137417;27;20331;-68
2022/02/23 07:59:46;;;;;;;11.60;5.50;;;5.60;99.90;;;;;;5137113;27;20231;-68
2022/02/23 08:02:14;;;;;;;13.13;5.88;;;5.60;99.90;;;;;;5137060;27;20671;-68
2022/02/23 08:04:41;;;;;;;8.77;5.35;;;5.60;99.90;;;;;;5137206;27;20674;-68
2022/02/23 08:07:09;;;;;;;7.68;5.10;;;5.80;99.90;;;;;;5137051;27;20248;-68
2022/02/23 08:09:36;;;;;;;8.90;6.00;;;6.00;99.90;;;;;;5137174;27;20196;-68
2022/02/23 08:12:04;;;;;;;8.02;5.80;;;6.20;99.90;;;;;;5137218;27;20570;-68
2022/02/23 08:14:30;;;;;;;7.03;5.55;;;6.40;99.90;;;;;;5136921;27;20257;-68
2022/02/23 08:19:41;;;;;;;7.70;4.97;;;6.60;99.90;;;;;;5136898;27;20215;-68
2022/02/23 08:22:12;;;;;;;8.27;5.82;;;6.70;99.90;;;;;;5136747;27;20233;-68
2022/02/23 08:24:42;;;;;;;6.53;4.97;;;6.80;99.90;;;;;;5137219;27;20201;-68
2022/02/23 08:27:10;;;;;;;5.88;4.03;;;6.80;99.90;;;;;;5136508;27;20224;-68
2022/02/23 08:29:38;;;;;;;8.77;5.03;;;6.90;99.90;;;;;;5136817;27;20197;-68
2022/02/23 08:32:08;;;;;;;6.50;4.70;;;7.00;99.90;;;;;;5136706;27;20212;-68
2022/02/23 08:34:35;;;;;;;6.60;4.70;;;7.00;99.90;;;;;;5136742;27;20254;-68
2022/02/23 08:37:02;;;;;;;10.82;5.60;;;7.00;99.90;;;;;;5136388;27;20811;-68
2022/02/23 08:39:32;;;;;;;7.18;4.72;;;7.00;99.90;;;;;;5136536;27;20265;-68
2022/02/23 08:42:00;;;;;;;8.27;4.93;;;7.10;99.90;;;;;;5136494;27;20228;-68
2022/02/23 08:44:26;;;;;;;7.93;5.72;;;7.10;99.90;;;;;;5133545;27;20208;-68
2022/02/23 08:46:55;;;;;;;11.90;6.00;;;7.10;99.90;;;;;;5124280;27;20231;-68
2022/02/23 08:49:22;;;;;;;8.30;6.13;;;7.20;99.90;;;;;;5135715;27;20252;-68
2022/02/23 08:51:49;;;;;;;10.10;5.78;;;7.20;99.90;;;;;;5134674;27;20201;-68
2022/02/23 08:54:18;;;;;;;9.43;6.30;;;7.20;99.90;;;;;;5135420;27;20203;-68
2022/02/23 08:56:47;;;;;;;9.45;5.90;;;7.20;99.90;;;;;;5134800;27;20775;-68
2022/02/23 08:59:14;;;;;;;9.93;6.38;;;7.30;99.90;;;;;;5134678;27;20207;-68
2022/02/23 09:01:42;;;;;;;9.38;6.30;;;7.40;99.90;;;;;;5135110;27;20211;-68
2022/02/23 09:04:09;;;;;;;7.78;5.50;;;7.50;99.90;;;;;;5135175;27;20219;-68
2022/02/23 09:06:39;;;;;;;8.70;5.90;;;7.60;99.90;;;;;;5134689;27;20232;-68
2022/02/23 09:09:07;;;;;;;7.22;5.10;;;7.70;99.90;;;;;;5134945;27;20296;-68
2022/02/23 09:11:34;;;;;;;6.80;4.75;;;7.80;99.90;;;;;;5135474;27;20295;-67
2022/02/23 09:14:02;;;;;;;5.88;3.90;;;8.00;99.90;;;;;;5136062;27;20208;-67
2022/02/23 09:16:29;;;;;;;8.52;3.40;;;8.10;99.90;;;;;;5135834;27;20223;-67
2022/02/23 09:18:56;;;;;;;4.68;3.13;;;8.20;99.90;;;;;;5135969;27;20230;-67
2022/02/23 09:21:23;;;;;;;5.18;2.70;;;8.30;99.90;;;;;;5135601;27;20220;-67
2022/02/23 09:23:50;;;;;;;4.22;2.50;;;8.40;99.90;;;;;;5135785;27;20254;-68
2022/02/23 09:26:19;;;;;;;3.10;2.40;;;8.60;99.90;;;;;;5135665;27;20251;-67
2022/02/23 09:28:46;;;;;;;3.70;2.53;;;8.80;99.90;;;;;;5135746;27;20204;-68
2022/02/23 09:31:15;;;;;;;4.60;3.10;;;8.80;99.90;;;;;;5135519;27;20284;-68
2022/02/23 09:33:42;;;;;;;4.07;2.45;;;8.90;99.90;;;;;;5135600;27;20205;-68
2022/02/23 09:36:09;;;;;;;4.95;2.10;;;9.10;99.90;;;;;;5135488;27;20295;-68
2022/02/23 09:38:36;;;;;;;5.40;3.83;;;9.20;99.90;;;;;;5135484;27;20200;-67
2022/02/23 09:41:07;;;;;;;5.20;4.30;;;9.30;99.90;;;;;;5135228;27;20642;-67
2022/02/23 09:43:34;;;;;;;6.35;4.18;;;9.30;99.90;;;;;;5135270;27;20723;-67
2022/02/23 09:46:01;;;;;;;8.77;4.50;;;9.30;99.90;;;;;;5135307;27;20295;-67
2022/02/23 09:48:31;;;;;;;4.75;3.85;;;9.30;99.90;;;;;;5135371;27;20295;-67
2022/02/23 09:51:00;;;;;;;7.35;4.45;;;9.30;99.90;;;;;;5134878;27;20192;-67
2022/02/23 09:53:28;;;;;;;7.25;4.20;;;9.30;99.90;;;;;;5135686;27;20291;-67
2022/02/23 09:55:57;;;;;;;6.00;4.78;;;9.30;99.90;;;;;;5134696;27;20201;-67
2022/02/23 09:58:24;;;;;;;8.98;5.60;;;9.40;99.90;;;;;;5135149;27;20216;-67
2022/02/23 10:00:51;;;;;;;8.63;4.55;;;9.50;99.90;;;;;;5134590;27;20220;-67
2022/02/23 10:03:18;;;;;;;7.03;4.75;;;9.50;99.90;;;;;;5134991;27;20211;-67
2022/02/23 10:05:46;;;;;;;9.85;4.50;;;9.60;99.90;;;;;;5135243;27;20292;-68
2022/02/23 10:08:14;;;;;;;5.88;5.28;;;9.50;99.90;;;;;;5135003;27;20223;-67
2022/02/23 10:10:43;;;;;;;9.63;5.55;;;9.50;99.90;;;;;;5134605;27;20204;-67
2022/02/23 10:13:11;;;;;;;6.55;4.30;;;9.50;99.90;;;;;;5134755;27;20243;-67
2022/02/23 10:15:40;;;;;;;9.70;4.75;;;9.50;99.90;;;;;;5134846;27;20212;-67
2022/02/23 10:18:08;;;;;;;7.97;5.10;;;9.50;99.90;;;;;;5134798;27;20259;-67
2022/02/23 10:20:39;;;;;;;6.93;4.38;;;9.60;99.90;;;;;;5134499;27;20217;-67
2022/02/23 10:23:15;;;;;;;5.53;3.88;;;9.80;99.90;;;;;;5134511;27;20212;-68
2022/02/23 10:25:43;;;;;;;8.60;4.20;;;10.20;99.90;;;;;;5134630;27;20196;-67
2022/02/23 10:28:12;;;;;;;7.75;4.28;;;10.60;99.90;;;;;;5134358;27;20233;-67
2022/02/23 10:30:50;;;;;;;4.10;3.42;;;11.20;99.90;;;;;;5134347;27;20599;-68
2022/02/23 10:33:20;;;;;;;5.05;3.55;;;11.50;99.90;;;;;;5134935;27;20207;-68
2022/02/23 10:35:54;;;;;;;6.65;3.35;;;11.80;99.90;;;;;;5134741;27;20216;-68
2022/02/23 10:38:25;;;;;;;8.85;3.80;;;12.00;99.90;;;;;;5134690;27;20613;-67
2022/02/23 10:40:54;;;;;;;6.53;3.25;;;12.60;99.90;;;;;;5134246;27;20221;-67
2022/02/23 10:43:26;;;;;;;6.13;3.85;;;12.80;99.90;;;;;;5134465;27;20204;-67
2022/02/23 10:46:00;;;;;;;5.45;2.60;;;12.40;99.90;;;;;;5134932;27;20200;-68
2022/02/23 10:48:31;;;;;;;5.07;3.75;;;12.40;99.90;;;;;;5134612;27;20198;-68
2022/02/23 10:50:58;;;;;;;5.00;3.70;;;11.90;99.90;;;;;;5134267;27;20201;-67
2022/02/23 10:53:28;;;;;;;6.07;3.35;;;11.60;99.90;;;;;;5134629;27;20323;-68
2022/02/23 10:55:55;;;;;;;3.30;2.90;;;11.80;99.90;;;;;;5134300;27;20201;-67
2022/02/23 10:58:24;;;;;;;4.70;2.60;;;12.20;99.90;;;;;;5134511;27;20196;-68
2022/02/23 11:00:53;;;;;;;4.78;3.00;;;12.40;99.90;;;;;;5134185;27;20262;-68
2022/02/23 11:03:21;;;;;;;4.63;2.38;;;12.10;99.90;;;;;;5134389;27;20287;-67
2022/02/23 11:05:48;;;;;;;6.18;3.25;;;12.20;99.40;;;;;;5134610;27;20201;-67
2022/02/23 11:08:15;;;;;;;5.40;3.00;;;12.60;99.50;;;;;;5136328;27;20247;-67
2022/02/23 11:10:45;;;;;;;5.22;2.83;;;12.60;99.70;;;;;;5138276;27;20193;-67
2022/02/23 11:13:15;;;;;;;5.28;3.05;;;12.40;99.10;;;;;;5139038;27;20197;-67
2022/02/23 11:15:44;;;;;;;7.97;3.90;;;12.00;99.90;;;;;;5138375;27;20249;-68
2022/02/23 11:18:13;;;;;;;3.97;3.20;;;11.80;99.90;;;;;;5137936;27;20220;-68
2022/02/23 11:20:42;;;;;;;6.57;3.20;;;11.60;99.90;;;;;;5137813;27;20212;-68
2022/02/23 11:23:09;;;;;;;6.45;3.10;;;11.80;99.90;;;;;;5137919;27;20205;-68
2022/02/23 11:25:38;;;;;;;5.13;3.22;;;12.50;99.90;;;;;;5138409;27;20203;-67
2022/02/23 11:28:11;;;;;;;5.88;3.25;;;13.00;99.90;;;;;;5137873;27;20320;-68
2022/02/23 11:30:38;;;;;;;5.82;3.08;;;13.60;98.60;;;;;;5137896;27;20205;-67
2022/02/23 11:33:05;;;;;;;4.90;3.45;;;13.40;97.70;;;;;;5137915;27;20201;-67
2022/02/23 11:35:40;;;;;;;4.28;3.10;;;13.30;98.60;;;;;;5138184;27;20283;-67
2022/02/23 11:38:07;;;;;;;7.90;3.45;;;13.60;99.90;;;;;;5137874;27;20263;-68
2022/02/23 11:40:48;;;;;;;8.80;4.85;;;13.50;97.70;;;;;;5137521;27;20308;-68
2022/02/23 11:43:27;;;;;;;6.30;2.95;;;13.70;97.40;;;;;;5137823;27;20228;-67
2022/02/23 11:49:16;;;;;;;2.70;1.65;;;13.50;94.40;;;;;;5137931;27;20177;-68
2022/02/23 11:51:44;;;;;;;3.65;1.95;;;13.80;92.90;;;;;;5137453;27;20201;-67
2022/02/23 11:57:43;;;;;;;4.95;2.00;;;13.80;92.30;;;;;;5131860;27;20223;-67
2022/02/23 12:00:31;;;;;;;5.68;1.60;;;13.00;94.50;;;;;;5137233;27;20573;-68
2022/02/23 12:03:00;;;;;;;5.13;1.92;;;12.90;94.30;;;;;;5137456;27;20212;-68
2022/02/23 12:05:39;;;;;;;3.10;1.70;;;13.00;95.60;;;;;;5137379;27;20325;-67
2022/02/23 12:08:07;;;;;;;3.88;1.70;;;13.00;94.10;;;;;;5137383;27;20636;-68
2022/02/23 12:10:34;;;;;;;1.80;1.70;;;13.00;93.50;;;;;;5137002;27;20204;-68
2022/02/23 12:13:01;;;;;;;3.67;2.25;;;13.00;93.90;;;;;;5137191;27;20208;-68
2022/02/23 12:15:35;;;;;;;3.13;2.15;;;13.30;94.60;;;;;;5136945;27;20233;-68
2022/02/23 12:18:07;;;;;;;3.80;2.08;;;13.90;94.50;;;;;;5136924;27;20229;-67
2022/02/23 12:20:54;;;;;;;4.95;2.13;;;14.20;92.20;;;;;;5136148;27;20220;-68
2022/02/23 12:23:41;;;;;;;4.03;2.10;;;15.30;94.40;;;;;;5137237;27;20208;-68
2022/02/23 12:26:29;;;;;;;2.63;1.77;;;16.40;91.40;;;;;;5136742;27;20201;-68
2022/02/23 12:28:58;;;;;;;3.10;2.35;;;16.80;82.50;;;;;;5136978;27;20185;-68
2022/02/23 12:31:30;;;;;;;2.35;2.15;;;16.80;82.60;;;;;;5136417;27;20200;-68
2022/02/23 12:33:59;;;;;;;2.08;1.75;;;17.10;79.90;;;;;;5136595;27;20258;-68
2022/02/23 12:36:37;;;;;;;3.43;2.33;;;17.60;80.80;;;;;;5136501;27;20703;-68
2022/02/23 12:39:05;;;;;;;2.50;2.03;;;17.90;77.30;;;;;;5136793;27;20428;-68
2022/02/23 12:41:34;;;;;;;3.50;1.83;;;18.20;73.10;;;;;;5136396;27;20534;-68
2022/02/23 12:44:05;;;;;;;3.27;1.50;;;18.50;72.50;;;;;;5136562;27;20483;-68
2022/02/23 12:46:36;;;;;;;3.07;1.80;;;18.60;72.40;;;;;;5136618;27;20486;-68
2022/02/23 12:49:05;;;;;;;2.33;1.80;;;19.00;74.40;;;;;;5136594;27;20523;-68
2022/02/23 12:51:32;;;;;;;3.67;2.30;;;19.10;69.00;;;;;;5136356;27;20451;-68
2022/02/23 12:54:04;;;;;;;2.80;1.47;;;18.90;69.70;;;;;;5136288;27;20465;-68
2022/02/23 12:56:34;;;;;;;4.47;1.90;;;18.40;65.30;;;;;;5136337;27;20462;-68
2022/02/23 12:59:04;;;;;;;3.72;2.20;;;17.80;73.40;;;;;;5136084;27;20201;-68
2022/02/23 13:01:33;;;;;;;2.85;2.40;;;17.40;74.70;;;;;;5136293;27;20224;-68
2022/02/23 13:04:03;;;;;;;2.67;1.65;;;16.50;77.80;;;;;;5136062;27;20201;-68
2022/02/23 13:06:31;;;;;;;3.65;2.50;;;15.90;78.30;;;;;;5136219;27;20231;-68
2022/02/23 13:09:01;;;;;;;2.42;2.05;;;15.60;77.90;;;;;;5136160;27;20206;-68
2022/02/23 13:11:29;;;;;;;5.00;2.20;;;15.40;77.90;;;;;;5135734;27;20198;-68